Observation data for Post on 01/18/2019      Previous  Date  Next       Current Mesonet Observations  Soil Data  Daily Summary Page  Observations in Plain Language
KPT1 180600Z 22004KT 08/M00 A3003 RMK A01 T00791002  RH  057%=      5-min Rain = 0
KPT1 180605Z 22005KT 08/M00 A3003 RMK A01 T00841002  RH  055%=      5-min Rain = 0
KPT1 180610Z 23004KT 08/M00 A3003 RMK A01 T00821003  RH  056%=      5-min Rain = 0
KPT1 180615Z 29000KT 06/M01 A3002 RMK A01 T00591008  RH  063%=      5-min Rain = 0
KPT1 180620Z 05000KT 05/M00 A3002 RMK A01 T00531004  RH  068%=      5-min Rain = 0
KPT1 180625Z 21002KT 05/M00 A3002 RMK A01 T00541002  RH  068%=      5-min Rain = 0
KPT1 180630Z 21004G9KT 06/M00 A3002 RMK A01 T00641002  RH  064%=      5-min Rain = 0
KPT1 180635Z 21005KT 08/M00 A3002 RMK A01 T00771002  RH  058%=      5-min Rain = 0
KPT1 180640Z 20006KT 08/M00 A3001 RMK A01 T00821003  RH  055%=      5-min Rain = 0
KPT1 180645Z 20008KT 09/M00 A3001 RMK A01 T00891001  RH  054%=      5-min Rain = 0
KPT1 180650Z 20008KT 10/00 A30 RMK A01 T00960002  RH  052%=      5-min Rain = 0
KPT1 180655Z 20007KT 10/00 A30 RMK A01 T00970002  RH  052%=      5-min Rain = 0
KPT1 180700Z 20006KT 10/00 A30 RMK A01 T00960001  RH  052%=      5-min Rain = 0
KPT1 180705Z 20005KT 09/00 A30 RMK A01 T00940001  RH  053%=      5-min Rain = 0
KPT1 180710Z 19005KT 10/00 A30 RMK A01 T00950001  RH  052%=      5-min Rain = 0
KPT1 180715Z 19004KT 09/00 A2999 RMK A01 T00930001  RH  053%=      5-min Rain = 0
KPT1 180720Z 20004KT 09/00 A2999 RMK A01 T00920001  RH  054%=      5-min Rain = 0
KPT1 180725Z 20005KT 09/00 A2999 RMK A01 T00920001  RH  054%=      5-min Rain = 0
KPT1 180730Z 19005KT 09/00 A2998 RMK A01 T00910001  RH  054%=      5-min Rain = 0
KPT1 180735Z 19003KT 09/00 A2998 RMK A01 T00880001  RH  055%=      5-min Rain = 0
KPT1 180740Z 19002KT 09/00 A2998 RMK A01 T00870001  RH  055%=      5-min Rain = 0
KPT1 180745Z 20001KT 09/00 A2998 RMK A01 T00900001  RH  055%=      5-min Rain = 0
KPT1 180750Z 17002KT 09/00 A2997 RMK A01 T00920002  RH  054%=      5-min Rain = 0
KPT1 180755Z 19004KT 09/00 A2997 RMK A01 T00910002  RH  054%=      5-min Rain = 0
KPT1 180800Z 19004KT 09/00 A2997 RMK A01 T00920004  RH  055%=      5-min Rain = 0
KPT1 180805Z 19005KT 09/00 A2997 RMK A01 T00930004  RH  055%=      5-min Rain = 0
KPT1 180810Z 19006KT 09/01 A2996 RMK A01 T00940006  RH  055%=      5-min Rain = 0
KPT1 180815Z 19006KT 09/01 A2996 RMK A01 T00940008  RH  056%=      5-min Rain = 0
KPT1 180820Z 19007KT 09/01 A2996 RMK A01 T00920009  RH  057%=      5-min Rain = 0
KPT1 180825Z 18006KT 09/01 A2996 RMK A01 T00900010  RH  058%=      5-min Rain = 0
KPT1 180830Z 18006KT 09/01 A2996 RMK A01 T00900013  RH  059%=      5-min Rain = 0
KPT1 180835Z 18006KT 09/02 A2996 RMK A01 T00910015  RH  059%=      5-min Rain = 0
KPT1 180840Z 18006KT 09/02 A2995 RMK A01 T00900015  RH  060%=      5-min Rain = 0
KPT1 180845Z 18006KT 09/02 A2995 RMK A01 T00880016  RH  061%=      5-min Rain = 0
KPT1 180850Z 18006KT 09/02 A2995 RMK A01 T00880016  RH  061%=      5-min Rain = 0
KPT1 180855Z 17005KT 09/02 A2995 RMK A01 T00860015  RH  062%=      5-min Rain = 0
KPT1 180900Z 16004KT 08/01 A2995 RMK A01 T00830013  RH  062%=      5-min Rain = 0
KPT1 180905Z 17005KT 08/01 A2995 RMK A01 T00800012  RH  063%=      5-min Rain = 0
KPT1 180910Z 17004KT 08/01 A2995 RMK A01 T00800013  RH  063%=      5-min Rain = 0
KPT1 180915Z 17003KT 08/01 A2994 RMK A01 T00810013  RH  063%=      5-min Rain = 0
KPT1 180920Z 17003KT 08/01 A2994 RMK A01 T00820014  RH  063%=      5-min Rain = 0
KPT1 180925Z 17005KT 08/01 A2994 RMK A01 T00820014  RH  063%=      5-min Rain = 0
KPT1 180930Z 17005KT 08/01 A2994 RMK A01 T00790013  RH  064%=      5-min Rain = 0
KPT1 180935Z 18004KT 08/01 A2994 RMK A01 T00770014  RH  065%=      5-min Rain = 0
KPT1 180940Z 19004KT 08/02 A2993 RMK A01 T00770015  RH  066%=      5-min Rain = 0
KPT1 180945Z 21004KT 08/02 A2993 RMK A01 T00790016  RH  065%=      5-min Rain = 0
KPT1 180950Z 21005KT 08/02 A2993 RMK A01 T00810016  RH  064%=      5-min Rain = 0
KPT1 180955Z 21006KT 08/02 A2992 RMK A01 T00790016  RH  065%=      5-min Rain = 0
KPT1 181000Z 20007KT 08/02 A2992 RMK A01 T00830020  RH  065%=      5-min Rain = 0
KPT1 181005Z 20006KT 09/02 A2992 RMK A01 T00860021  RH  065%=      5-min Rain = 0
KPT1 181010Z 21007KT 09/02 A2991 RMK A01 T00880021  RH  064%=      5-min Rain = 0
KPT1 181015Z 20007KT 09/02 A2991 RMK A01 T00920021  RH  062%=      5-min Rain = 0
KPT1 181020Z 20009KT 09/02 A2991 RMK A01 T00920022  RH  062%=      5-min Rain = 0
KPT1 181025Z 20009KT 09/02 A299 RMK A01 T00930021  RH  061%=      5-min Rain = 0
KPT1 181030Z 20009KT 09/02 A299 RMK A01 T00940021  RH  061%=      5-min Rain = 0
KPT1 181035Z 21008KT 09/02 A299 RMK A01 T00930020  RH  061%=      5-min Rain = 0
KPT1 181040Z 21007KT 09/02 A299 RMK A01 T00920019  RH  061%=      5-min Rain = 0
KPT1 181045Z 21008KT 10/02 A2989 RMK A01 T00950019  RH  060%=      5-min Rain = 0
KPT1 181050Z 22008G13KT 10/02 A2989 RMK A01 T01010019  RH  058%=      5-min Rain = 0
KPT1 181055Z 22010KT 10/02 A2989 RMK A01 T01000020  RH  058%=      5-min Rain = 0
KPT1 181100Z 22010KT 10/02 A2989 RMK A01 T01010021  RH  058%=      5-min Rain = 0
KPT1 181105Z 22010KT 10/02 A2989 RMK A01 T01000023  RH  059%=      5-min Rain = 0
KPT1 181110Z 22011KT 10/02 A2989 RMK A01 T01000024  RH  060%=      5-min Rain = 0
KPT1 181115Z 23012G18KT 10/02 A2988 RMK A01 T01020024  RH  059%=      5-min Rain = 0
KPT1 181120Z 23012G19KT 10/02 A2988 RMK A01 T01020024  RH  059%=      5-min Rain = 0
KPT1 181125Z 23012G17KT 10/02 A2987 RMK A01 T01010024  RH  059%=      5-min Rain = 0
KPT1 181130Z 23013KT 10/02 A2987 RMK A01 T01010023  RH  059%=      5-min Rain = 0
KPT1 181135Z 23012G18KT 10/02 A2987 RMK A01 T00990023  RH  060%=      5-min Rain = 0
KPT1 181140Z 23012KT 10/02 A2986 RMK A01 T00950023  RH  061%=      5-min Rain = 0
KPT1 181145Z 23012KT 09/02 A2986 RMK A01 T00920023  RH  063%=      5-min Rain = 0
KPT1 181150Z 23012KT 09/02 A2985 RMK A01 T00890022  RH  064%=      5-min Rain = 0
KPT1 181155Z 23011KT 09/02 A2985 RMK A01 T00860021  RH  064%=      5-min Rain = 0
KPT1 181200Z 23010KT 09/02 A2985 RMK A01 T00860021  RH  064%=      5-min Rain = 0
KPT1 181205Z 23011G16KT 09/02 A2985 RMK A01 T00860020  RH  064%=      5-min Rain = 0
KPT1 181210Z 24010KT 09/02 A2985 RMK A01 T00850020  RH  064%=      5-min Rain = 0
KPT1 181215Z 24010KT 08/02 A2985 RMK A01 T00830019  RH  065%=      5-min Rain = 0
KPT1 181220Z 24009KT 08/02 A2984 RMK A01 T00800018  RH  066%=      5-min Rain = 0
KPT1 181225Z 24010KT 08/02 A2984 RMK A01 T00780018  RH  067%=      5-min Rain = 0
KPT1 181230Z 24011KT 08/02 A2984 RMK A01 T00770018  RH  067%=      5-min Rain = 0
KPT1 181235Z 24011KT 08/02 A2984 RMK A01 T00750018  RH  068%=      5-min Rain = 0
KPT1 181240Z 24012KT 07/02 A2984 RMK A01 T00730017  RH  068%=      5-min Rain = 0
KPT1 181245Z 24012KT 08/02 A2983 RMK A01 T00750016  RH  067%=      5-min Rain = 0
KPT1 181250Z 23014KT 08/02 A2983 RMK A01 T00780016  RH  066%=      5-min Rain = 0
KPT1 181255Z 23013KT 08/02 A2982 RMK A01 T00800016  RH  064%=      5-min Rain = 0
KPT1 181300Z 23012G17KT 08/02 A2982 RMK A01 T00810015  RH  064%=      5-min Rain = 0
KPT1 181305Z 23012KT 08/02 A2983 RMK A01 T00830015  RH  063%=      5-min Rain = 0
KPT1 181310Z 24012G17KT 08/02 A2983 RMK A01 T00830015  RH  063%=      5-min Rain = 0
KPT1 181315Z 24013G18KT 08/01 A2983 RMK A01 T00840014  RH  062%=      5-min Rain = 0
KPT1 181320Z 24012G17KT 08/01 A2983 RMK A01 T00830014  RH  063%=      5-min Rain = 0
KPT1 181325Z 24013KT 08/01 A2983 RMK A01 T00830014  RH  063%=      5-min Rain = 0
KPT1 181330Z 23013KT 08/01 A2983 RMK A01 T00820014  RH  063%=      5-min Rain = 0
KPT1 181335Z 24014KT 09/01 A2983 RMK A01 T00870013  RH  061%=      5-min Rain = 0
KPT1 181340Z 24013KT 09/01 A2983 RMK A01 T00860013  RH  061%=      5-min Rain = 0
KPT1 181345Z 23014G19KT 09/01 A2983 RMK A01 T00880013  RH  060%=      5-min Rain = 0
KPT1 181350Z 23013KT 09/01 A2982 RMK A01 T00920013  RH  058%=      5-min Rain = 0
KPT1 181355Z 23013G22KT 10/01 A2982 RMK A01 T00960014  RH  057%=      5-min Rain = 0
KPT1 181400Z 24014G21KT 10/01 A2982 RMK A01 T01010014  RH  055%=      5-min Rain = 0
KPT1 181405Z 23015G21KT 11/01 A2982 RMK A01 T01050014  RH  054%=      5-min Rain = 0
KPT1 181410Z 24014KT 10/01 A2982 RMK A01 T01040014  RH  054%=      5-min Rain = 0
KPT1 181415Z 24013G18KT 10/02 A2982 RMK A01 T01030015  RH  055%=      5-min Rain = 0
KPT1 181420Z 24014G19KT 10/02 A2982 RMK A01 T01030016  RH  055%=      5-min Rain = 0
KPT1 181425Z 24015KT 11/02 A2982 RMK A01 T01060016  RH  054%=      5-min Rain = 0
KPT1 181430Z 24016G22KT 11/02 A2982 RMK A01 T01120016  RH  052%=      5-min Rain = 0
KPT1 181435Z 24017G22KT 11/02 A2982 RMK A01 T01130016  RH  052%=      5-min Rain = 0
KPT1 181440Z 24016G21KT 12/02 A2981 RMK A01 T01150017  RH  051%=      5-min Rain = 0
KPT1 181445Z 23016G23KT 12/02 A2981 RMK A01 T01150016  RH  051%=      5-min Rain = 0
KPT1 181450Z 24016G22KT 12/02 A2981 RMK A01 T01160017  RH  051%=      5-min Rain = 0
KPT1 181455Z 24015G20KT 12/02 A2981 RMK A01 T01170016  RH  051%=      5-min Rain = 0
KPT1 181500Z 24015KT 12/02 A2981 RMK A01 T01160016  RH  051%=      5-min Rain = 0
KPT1 181505Z 24016G21KT 12/02 A2981 RMK A01 T01190016  RH  050%=      5-min Rain = 0
KPT1 181510Z 24015G20KT 12/02 A2981 RMK A01 T01240017  RH  049%=      5-min Rain = 0
KPT1 181515Z 24015G21KT 13/02 A2981 RMK A01 T01280018  RH  047%=      5-min Rain = 0
KPT1 181520Z 24017G22KT 13/02 A2982 RMK A01 T01280017  RH  047%=      5-min Rain = 0
KPT1 181525Z 24016G23KT 13/02 A2982 RMK A01 T01250017  RH  048%=      5-min Rain = 0
KPT1 181530Z 24016G22KT 12/02 A2982 RMK A01 T01220016  RH  049%=      5-min Rain = 0
KPT1 181535Z 24015G20KT 13/02 A2982 RMK A01 T01260017  RH  048%=      5-min Rain = 0
KPT1 181540Z 25016G22KT 13/02 A2982 RMK A01 T01310016  RH  046%=      5-min Rain = 0
KPT1 181545Z 24015G23KT 13/02 A2982 RMK A01 T01340017  RH  045%=      5-min Rain = 0
KPT1 181550Z 24017G24KT 14/02 A2981 RMK A01 T01360016  RH  045%=      5-min Rain = 0
KPT1 181555Z 24018G25KT 14/02 A2981 RMK A01 T01390016  RH  044%=      5-min Rain = 0
KPT1 181600Z 24016G23KT 14/02 A2981 RMK A01 T01420018  RH  043%=      5-min Rain = 0
KPT1 181605Z 24017G26KT 14/02 A2981 RMK A01 T01440018  RH  043%=      5-min Rain = 0
KPT1 181610Z 23016G21KT 15/02 A298 RMK A01 T01460017  RH  042%=      5-min Rain = 0
KPT1 181615Z 24017G24KT 15/02 A298 RMK A01 T01490017  RH  041%=      5-min Rain = 0
KPT1 181620Z 24019G25KT 15/02 A298 RMK A01 T01510015  RH  040%=      5-min Rain = 0
KPT1 181625Z 24018G26KT 16/02 A298 RMK A01 T01550015  RH  039%=      5-min Rain = 0
KPT1 181630Z 24019G25KT 16/01 A2979 RMK A01 T01600013  RH  037%=      5-min Rain = 0
KPT1 181635Z 24020G28KT 16/01 A2979 RMK A01 T01620012  RH  037%=      5-min Rain = 0
KPT1 181640Z 24020G29KT 17/01 A2979 RMK A01 T01650011  RH  036%=      5-min Rain = 0
KPT1 181645Z 24021G28KT 17/01 A2979 RMK A01 T01680010  RH  035%=      5-min Rain = 0
KPT1 181650Z 24019G30KT 17/01 A298 RMK A01 T01720011  RH  034%=      5-min Rain = 0
KPT1 181655Z 24021G27KT 17/01 A2979 RMK A01 T01710010  RH  034%=      5-min Rain = 0
KPT1 181700Z 25020G29KT 17/01 A2979 RMK A01 T01710010  RH  034%=      5-min Rain = 0
KPT1 181705Z 24021G28KT 17/01 A2979 RMK A01 T01730010  RH  034%=      5-min Rain = 0
KPT1 181710Z 25018G25KT 18/01 A2978 RMK A01 T01760011  RH  033%=      5-min Rain = 0
KPT1 181715Z 25021G27KT 18/01 A2978 RMK A01 T01770011  RH  033%=      5-min Rain = 0
KPT1 181720Z 24021G30KT 18/01 A2978 RMK A01 T01820012  RH  032%=      5-min Rain = 0
KPT1 181725Z 25022G27KT 19/01 A2977 RMK A01 T01860011  RH  031%=      5-min Rain = 0
KPT1 181730Z 24019G28KT 19/01 A2977 RMK A01 T01910011  RH  030%=      5-min Rain = 0
KPT1 181735Z 24021G30KT 19/01 A2976 RMK A01 T01920010  RH  030%=      5-min Rain = 0
KPT1 181740Z 24020G27KT 20/01 A2976 RMK A01 T01960010  RH  029%=      5-min Rain = 0
KPT1 181745Z 25018G24KT 20/01 A2976 RMK A01 T02020011  RH  028%=      5-min Rain = 0
KPT1 181750Z 23019G25KT 21/01 A2975 RMK A01 T02080008  RH  027%=      5-min Rain = 0
KPT1 181755Z 25019G25KT 22/01 A2975 RMK A01 T02160005  RH  025%=      5-min Rain = 0
KPT1 181800Z 25023G32KT 22/M00 A2974 RMK A01 T02181001  RH  024%=      5-min Rain = 0
KPT1 181805Z 25020G30KT 22/M00 A2974 RMK A01 T02171003  RH  023%=      5-min Rain = 0
KPT1 181810Z 26023G32KT 22/M01 A2974 RMK A01 T02181005  RH  023%=      5-min Rain = 0
KPT1 181815Z 25021G31KT 22/M00 A2974 RMK A01 T02191003  RH  023%=      5-min Rain = 0
KPT1 181820Z 25021G31KT 22/M00 A2973 RMK A01 T02191004  RH  023%=      5-min Rain = 0
KPT1 181825Z 26021G27KT 22/M01 A2973 RMK A01 T02221005  RH  022%=      5-min Rain = 0
KPT1 181830Z 26022G31KT 22/M01 A2972 RMK A01 T02231005  RH  022%=      5-min Rain = 0
KPT1 181835Z 26020G28KT 22/M00 A2972 RMK A01 T02201004  RH  023%=      5-min Rain = 0
KPT1 181840Z 25025G39KT 22/M01 A2971 RMK A01 T02201007  RH  022%=      5-min Rain = 0
KPT1 181845Z 26027G34KT 22/M01 A2971 RMK A01 T02181008  RH  022%=      5-min Rain = 0
KPT1 181850Z 26024G31KT 22/M01 A2971 RMK A01 T02201008  RH  022%=      5-min Rain = 0
KPT1 181855Z 25023G31KT 21/M01 A2971 RMK A01 T02131008  RH  023%=      5-min Rain = 0
KPT1 181900Z 26023G32KT 21/M01 A2971 RMK A01 T02111009  RH  023%=      5-min Rain = 0
KPT1 181905Z 27021G31KT 21/M01 A2971 RMK A01 T02121010  RH  023%=      5-min Rain = 0
KPT1 181910Z 27025G34KT 21/M01 A297 RMK A01 T02101014  RH  022%=      5-min Rain = 0
KPT1 181915Z 27021G28KT 21/M01 A297 RMK A01 T02111012  RH  023%=      5-min Rain = 0
KPT1 181920Z 26023G34KT 21/M01 A2969 RMK A01 T02121011  RH  023%=      5-min Rain = 0
KPT1 181925Z 26025G33KT 21/M01 A2969 RMK A01 T02121012  RH  022%=      5-min Rain = 0
KPT1 181930Z 26024G33KT 21/M01 A2969 RMK A01 T02121013  RH  022%=      5-min Rain = 0
KPT1 181935Z 26025G31KT 21/M01 A2969 RMK A01 T02101014  RH  022%=      5-min Rain = 0
KPT1 181940Z 26024G35KT 21/M02 A2968 RMK A01 T02091015  RH  022%=      5-min Rain = 0
KPT1 181945Z 26021G29KT 21/M01 A2968 RMK A01 T02101014  RH  022%=      5-min Rain = 0
KPT1 181950Z 25025G36KT 21/M02 A2967 RMK A01 T02121016  RH  022%=      5-min Rain = 0
KPT1 181955Z 26021G31KT 22/M02 A2967 RMK A01 T02151016  RH  021%=      5-min Rain = 0
KPT1 182000Z 27025G34KT 22/M02 A2967 RMK A01 T02151015  RH  022%=      5-min Rain = 0
KPT1 182005Z 26023G36KT 22/M01 A2966 RMK A01 T02161014  RH  022%=      5-min Rain = 0
KPT1 182010Z 25026G39KT 22/M02 A2965 RMK A01 T02181016  RH  021%=      5-min Rain = 0
KPT1 182015Z 27023G33KT 22/M02 A2966 RMK A01 T02191018  RH  021%=      5-min Rain = 0
KPT1 182020Z 26020G27KT 22/M02 A2966 RMK A01 T02221015  RH  021%=      5-min Rain = 0
KPT1 182025Z 26023G30KT 22/M02 A2965 RMK A01 T02181015  RH  021%=      5-min Rain = 0
KPT1 182030Z 26023G32KT 22/M02 A2965 RMK A01 T02191016  RH  021%=      5-min Rain = 0
KPT1 182035Z 26023G30KT 22/M02 A2965 RMK A01 T02171018  RH  021%=      5-min Rain = 0
KPT1 182040Z 26026G35KT 22/M02 A2964 RMK A01 T02161021  RH  020%=      5-min Rain = 0
KPT1 182045Z 26027G36KT 21/M02 A2964 RMK A01 T02141020  RH  021%=      5-min Rain = 0
KPT1 182050Z 26023G33KT 22/M02 A2965 RMK A01 T02161019  RH  021%=      5-min Rain = 0
KPT1 182055Z 27026G37KT 21/M01 A2965 RMK A01 T02141014  RH  022%=      5-min Rain = 0
KPT1 182100Z 26024G32KT 21/M01 A2966 RMK A01 T02141011  RH  022%=      5-min Rain = 0
KPT1 182105Z 26021G29KT 21/M01 A2966 RMK A01 T02131010  RH  023%=      5-min Rain = 0
KPT1 182110Z 27027G36KT 21/M03 A2966 RMK A01 T02101026  RH  021%=      5-min Rain = 0
KPT1 182115Z 27023G33KT 21/M03 A2966 RMK A01 T02071025  RH  021%=      5-min Rain = 0
KPT1 182120Z 27023G33KT 21/M02 A2966 RMK A01 T02061020  RH  022%=      5-min Rain = 0
KPT1 182125Z 26028G37KT 21/M02 A2966 RMK A01 T02051017  RH  023%=      5-min Rain = 0
KPT1 182130Z 26025G35KT 20/M01 A2966 RMK A01 T02021013  RH  024%=      5-min Rain = 0
KPT1 182135Z 26025G34KT 20/M01 A2966 RMK A01 T02021013  RH  024%=      5-min Rain = 0
KPT1 182140Z 26026G36KT 20/M01 A2966 RMK A01 T02001012  RH  024%=      5-min Rain = 0
KPT1 182145Z 26025G34KT 20/M01 A2966 RMK A01 T01981009  RH  025%=      5-min Rain = 0
KPT1 182150Z 26023G34KT 20/M01 A2966 RMK A01 T01981009  RH  025%=      5-min Rain = 0
KPT1 182155Z 25025G32KT 20/M01 A2966 RMK A01 T01971011  RH  025%=      5-min Rain = 0
KPT1 182200Z 25023G35KT 20/M01 A2966 RMK A01 T01981010  RH  025%=      5-min Rain = 0
KPT1 182205Z 26023G34KT 20/M01 A2966 RMK A01 T01991009  RH  025%=      5-min Rain = 0
KPT1 182210Z 26024G35KT 20/M01 A2966 RMK A01 T01961008  RH  026%=      5-min Rain = 0
KPT1 182215Z 26021G29KT 20/M01 A2967 RMK A01 T01981005  RH  026%=      5-min Rain = 0
KPT1 182220Z 26023G31KT 20/M00 A2967 RMK A01 T01971004  RH  026%=      5-min Rain = 0
KPT1 182225Z 27021G30KT 19/M01 A2967 RMK A01 T01941007  RH  026%=      5-min Rain = 0
KPT1 182230Z 27021G29KT 19/M01 A2967 RMK A01 T01911009  RH  026%=      5-min Rain = 0
KPT1 182235Z 27021G29KT 19/M01 A2967 RMK A01 T01891008  RH  027%=      5-min Rain = 0
KPT1 182240Z 26020G27KT 19/M01 A2967 RMK A01 T01881008  RH  027%=      5-min Rain = 0
KPT1 182245Z 27022G31KT 19/M01 A2967 RMK A01 T01881009  RH  027%=      5-min Rain = 0
KPT1 182250Z 27023G32KT 19/M01 A2967 RMK A01 T01871009  RH  027%=      5-min Rain = 0
KPT1 182255Z 27020G27KT 19/M01 A2967 RMK A01 T01871008  RH  027%=      5-min Rain = 0
KPT1 182300Z 26021G29KT 19/M01 A2968 RMK A01 T01861008  RH  027%=      5-min Rain = 0
KPT1 182305Z 27022G30KT 19/M02 A2968 RMK A01 T01851015  RH  026%=      5-min Rain = 0
KPT1 182310Z 27025G38KT 18/M03 A2968 RMK A01 T01831029  RH  024%=      5-min Rain = 0
KPT1 182315Z 27025G34KT 18/M03 A2969 RMK A01 T01801026  RH  025%=      5-min Rain = 0
KPT1 182320Z 28024G35KT 17/M02 A2969 RMK A01 T01741016  RH  028%=      5-min Rain = 0
KPT1 182325Z 28020G29KT 17/M01 A2969 RMK A01 T01701011  RH  029%=      5-min Rain = 0
KPT1 182330Z 27021G29KT 17/M02 A2968 RMK A01 T01711023  RH  027%=      5-min Rain = 0
KPT1 182335Z 27018G25KT 17/M01 A2968 RMK A01 T01651009  RH  031%=      5-min Rain = 0
KPT1 182340Z 27014G19KT 16/M01 A2968 RMK A01 T01621005  RH  032%=      5-min Rain = 0
KPT1 182345Z 26016G23KT 16/M01 A2967 RMK A01 T01641013  RH  030%=      5-min Rain = 0
KPT1 182350Z 26016G23KT 17/M02 A2967 RMK A01 T01651020  RH  028%=      5-min Rain = 0
KPT1 182355Z 26014G19KT 16/M02 A2968 RMK A01 T01641022  RH  028%=      5-min Rain = 0
KPT1 190000Z 25015G22KT 16/M03 A2968 RMK A01 T01631029  RH  027%=      5-min Rain = 0
KPT1 190005Z 25014G20KT 16/M04 A2968 RMK A01 T01631037  RH  025%=      5-min Rain = 0
KPT1 190010Z 24014G19KT 16/M04 A2968 RMK A01 T01611038  RH  025%=      5-min Rain = 0
KPT1 190015Z 24012G17KT 16/M03 A2968 RMK A01 T01601034  RH  027%=      5-min Rain = 0
KPT1 190020Z 25012KT 16/M03 A2969 RMK A01 T01591032  RH  027%=      5-min Rain = 0
KPT1 190025Z 25013G19KT 16/M03 A297 RMK A01 T01571032  RH  027%=      5-min Rain = 0
KPT1 190030Z 25014G19KT 16/M04 A297 RMK A01 T01571038  RH  026%=      5-min Rain = 0
KPT1 190035Z 25019G29KT 16/M05 A2972 RMK A01 T01591049  RH  024%=      5-min Rain = 0
KPT1 190040Z 25021G28KT 16/M06 A2972 RMK A01 T01601056  RH  022%=      5-min Rain = 0
KPT1 190045Z 24019G28KT 16/M06 A2972 RMK A01 T01591058  RH  022%=      5-min Rain = 0
KPT1 190050Z 25014G22KT 16/M06 A2971 RMK A01 T01561057  RH  023%=      5-min Rain = 0
KPT1 190055Z 25018G26KT 16/M06 A2971 RMK A01 T01551059  RH  023%=      5-min Rain = 0
KPT1 190100Z 25017G25KT 15/M06 A2972 RMK A01 T01541061  RH  022%=      5-min Rain = 0
KPT1 190105Z 25016G25KT 15/M06 A2972 RMK A01 T01521060  RH  023%=      5-min Rain = 0
KPT1 190110Z 25016G22KT 15/M06 A2972 RMK A01 T01501061  RH  023%=      5-min Rain = 0
KPT1 190115Z 25015G22KT 15/M06 A2972 RMK A01 T01481062  RH  023%=      5-min Rain = 0
KPT1 190120Z 25014G20KT 15/M06 A2972 RMK A01 T01461063  RH  023%=      5-min Rain = 0
KPT1 190125Z 25013G18KT 14/M06 A2972 RMK A01 T01431062  RH  024%=      5-min Rain = 0
KPT1 190130Z 25013G19KT 14/M06 A2972 RMK A01 T01411063  RH  024%=      5-min Rain = 0
KPT1 190135Z 25013G18KT 14/M06 A2972 RMK A01 T01391063  RH  024%=      5-min Rain = 0
KPT1 190140Z 26014G19KT 14/M07 A2972 RMK A01 T01381065  RH  024%=      5-min Rain = 0
KPT1 190145Z 26017G22KT 14/M07 A2972 RMK A01 T01381069  RH  023%=      5-min Rain = 0
KPT1 190150Z 26018G25KT 14/M07 A2972 RMK A01 T01411073  RH  022%=      5-min Rain = 0
KPT1 190155Z 27019G24KT 14/M07 A2972 RMK A01 T01411071  RH  022%=      5-min Rain = 0
KPT1 190200Z 30028G43KT 14/M05 A2973 RMK A01 T01381049  RH  028%=      5-min Rain = 0
KPT1 190205Z 33029G39KT 11/M02 A2975 RMK A01 T01081017  RH  042%=      5-min Rain = 0
KPT1 190210Z 32030G39KT 10/M02 A2977 RMK A01 T01011015  RH  045%=      5-min Rain = 0
KPT1 190215Z 32031G41KT 10/M01 A2978 RMK A01 T00951012  RH  048%=      5-min Rain = 0
KPT1 190220Z 32033G43KT 09/M01 A298 RMK A01 T00911010  RH  050%=      5-min Rain = 0
KPT1 190225Z 32031G44KT 09/M01 A2981 RMK A01 T00871010  RH  051%=      5-min Rain = 0
KPT1 190230Z 33026G36KT 08/M01 A2982 RMK A01 T00831010  RH  053%=      5-min Rain = 0
KPT1 190235Z 33026G32KT 08/M01 A2982 RMK A01 T00801010  RH  054%=      5-min Rain = 0
KPT1 190240Z 33023G32KT 08/M01 A2982 RMK A01 T00781010  RH  054%=      5-min Rain = 0
KPT1 190245Z 33021G30KT 08/M01 A2982 RMK A01 T00761010  RH  055%=      5-min Rain = 0
KPT1 190250Z 33021G29KT 07/M01 A2983 RMK A01 T00741011  RH  056%=      5-min Rain = 0
KPT1 190255Z 33017G24KT 07/M01 A2984 RMK A01 T00721011  RH  056%=      5-min Rain = 0
KPT1 190300Z 33019G28KT 07/M01 A2984 RMK A01 T00711011  RH  057%=      5-min Rain = 0
KPT1 190305Z 33022G30KT 07/M01 A2985 RMK A01 T00701011  RH  057%=      5-min Rain = 0
KPT1 190310Z 33024G33KT 07/M01 A2985 RMK A01 T00691011  RH  057%=      5-min Rain = 0
KPT1 190315Z 33022G30KT 07/M01 A2985 RMK A01 T00681012  RH  057%=      5-min Rain = 0
KPT1 190320Z 33022G30KT 07/M01 A2986 RMK A01 T00661012  RH  058%=      5-min Rain = 0
KPT1 190325Z 33021G29KT 07/M01 A2987 RMK A01 T00661012  RH  058%=      5-min Rain = 0
KPT1 190330Z 33021G30KT 07/M01 A2987 RMK A01 T00671012  RH  058%=      5-min Rain = 0
KPT1 190335Z 33022G32KT 07/M01 A2988 RMK A01 T00681012  RH  057%=      5-min Rain = 0
KPT1 190340Z 33022G31KT 07/M01 A2989 RMK A01 T00681012  RH  057%=      5-min Rain = 0
KPT1 190345Z 33027G42KT 06/M02 A2989 RMK A01 T00621016  RH  058%=      5-min Rain = 0
KPT1 190350Z 33027G36KT 06/M02 A299 RMK A01 T00571021  RH  058%=      5-min Rain = 0
KPT1 190355Z 33027G36KT 05/M02 A2991 RMK A01 T00531022  RH  059%=      5-min Rain = 0
KPT1 190400Z 34024G32KT 05/M02 A2992 RMK A01 T00511021  RH  060%=      5-min Rain = 0
KPT1 190405Z 33026G35KT 05/M02 A2992 RMK A01 T00511023  RH  059%=      5-min Rain = 0
KPT1 190410Z 33025G37KT 05/M03 A2992 RMK A01 T00511025  RH  059%=      5-min Rain = 0
KPT1 190415Z 33025G34KT 05/M03 A2992 RMK A01 T00511025  RH  059%=      5-min Rain = 0
KPT1 190420Z 34024G31KT 05/M03 A2993 RMK A01 T00521025  RH  058%=      5-min Rain = 0
KPT1 190425Z 34027G37KT 05/M03 A2993 RMK A01 T00511029  RH  057%=      5-min Rain = 0
KPT1 190430Z 34022G34KT 05/M03 A2994 RMK A01 T00481034  RH  056%=      5-min Rain = 0
KPT1 190435Z 34026G41KT 05/M04 A2995 RMK A01 T00471036  RH  055%=      5-min Rain = 0
KPT1 190440Z 34025G35KT 05/M04 A2995 RMK A01 T00481036  RH  055%=      5-min Rain = 0
KPT1 190445Z 34022G32KT 05/M03 A2996 RMK A01 T00481034  RH  056%=      5-min Rain = 0
KPT1 190450Z 33027G34KT 05/M03 A2996 RMK A01 T00491033  RH  056%=      5-min Rain = 0
KPT1 190455Z 33031G41KT 05/M03 A2997 RMK A01 T00481031  RH  057%=      5-min Rain = 0
KPT1 190500Z 33027G37KT 05/M03 A2997 RMK A01 T00471031  RH  057%=      5-min Rain = 0
KPT1 190505Z 33025G34KT 05/M03 A2998 RMK A01 T00471031  RH  057%=      5-min Rain = 0
KPT1 190510Z 34024G35KT 05/M03 A2998 RMK A01 T00481031  RH  057%=      5-min Rain = 0
KPT1 190515Z 33020G27KT 05/M03 A2999 RMK A01 T00481030  RH  058%=      5-min Rain = 0
KPT1 190520Z 33027G41KT 05/M04 A2999 RMK A01 T00471035  RH  056%=      5-min Rain = 0
KPT1 190525Z 33028G37KT 05/M04 A30 RMK A01 T00451041  RH  054%=      5-min Rain = 0
KPT1 190530Z 34028G36KT 04/M04 A30 RMK A01 T00431038  RH  056%=      5-min Rain = 0
KPT1 190535Z 34022G32KT 04/M04 A3001 RMK A01 T00421038  RH  057%=      5-min Rain = 0
KPT1 190540Z 33023G33KT 04/M04 A3002 RMK A01 T00411039  RH  057%=      5-min Rain = 0
KPT1 190545Z 33024G33KT 04/M03 A3002 RMK A01 T00371033  RH  061%=      5-min Rain = 0
KPT1 190550Z 33023G33KT 04/M03 A3003 RMK A01 T00361031  RH  062%=      5-min Rain = 0
KPT1 190555Z 33025G35KT 04/M03 A3003 RMK A01 T00361033  RH  061%=      5-min Rain = 0

Page generated in 0.0091 seconds.